createdAt,value
2018-07-19T00:01:27.875Z,56.60
2018-07-19T00:03:55.692Z,56.50
2018-07-19T00:06:23.456Z,56.70
2018-07-19T00:08:51.221Z,57.10
2018-07-19T00:11:19.038Z,57.90
2018-07-19T00:13:46.791Z,57.70
2018-07-19T00:16:14.594Z,58.00
2018-07-19T00:18:42.348Z,59.00
2018-07-19T00:23:37.782Z,58.30
2018-07-19T00:26:05.569Z,58.50
2018-07-19T00:28:33.339Z,59.30
2018-07-19T00:31:01.076Z,59.40
2018-07-19T00:35:56.511Z,61.40
2018-07-19T00:38:24.266Z,61.40
2018-07-19T00:40:52.049Z,62.10
2018-07-19T00:43:19.819Z,62.10
2018-07-19T00:45:47.612Z,62.50
2018-07-19T00:48:15.404Z,63.20
2018-07-19T00:50:43.186Z,64.00
2018-07-19T00:55:38.973Z,64.80
2018-07-19T00:58:06.719Z,65.50
2018-07-19T01:00:34.518Z,65.10
2018-07-19T01:03:02.288Z,65.10
2018-07-19T01:05:30.089Z,64.80
2018-07-19T01:07:57.879Z,64.50
2018-07-19T01:10:25.725Z,61.90
2018-07-19T01:12:53.715Z,63.60
2018-07-19T01:15:21.482Z,61.70
2018-07-19T01:17:49.346Z,62.00
2018-07-19T01:20:17.116Z,61.70
2018-07-19T01:22:44.982Z,60.30
2018-07-19T01:25:12.807Z,60.60
2018-07-19T01:30:08.315Z,60.00
2018-07-19T01:32:36.303Z,61.30
2018-07-19T01:35:04.096Z,61.40
2018-07-19T01:37:31.855Z,62.10
2018-07-19T01:39:59.662Z,62.50
2018-07-19T01:42:34.023Z,60.40
2018-07-19T01:45:01.862Z,62.00
2018-07-19T01:47:29.766Z,61.10
2018-07-19T01:49:57.540Z,62.00
2018-07-19T01:52:25.374Z,61.60
2018-07-19T01:54:53.143Z,61.90
2018-07-19T01:57:21.171Z,62.10
2018-07-19T01:59:49.550Z,62.20
2018-07-19T02:02:18.313Z,62.70
2018-07-19T02:04:46.192Z,63.60
2018-07-19T02:07:13.999Z,63.60
2018-07-19T02:09:41.813Z,63.80
2018-07-19T02:12:09.685Z,63.20
2018-07-19T02:14:37.470Z,63.50
2018-07-19T02:17:05.501Z,63.70
2018-07-19T02:22:01.055Z,65.00
2018-07-19T02:24:28.865Z,65.10
2018-07-19T02:26:56.663Z,65.30
2018-07-19T02:31:52.095Z,65.90
2018-07-19T02:34:19.964Z,65.80
2018-07-19T02:36:47.745Z,65.40
2018-07-19T02:39:15.635Z,65.20
2018-07-19T02:41:43.419Z,65.90
2018-07-19T02:44:12.267Z,67.40
2018-07-19T02:46:41.091Z,67.70
2018-07-19T02:49:09.195Z,67.40
2018-07-19T02:51:37.624Z,67.30
2018-07-19T02:54:05.453Z,67.70
2018-07-19T02:59:00.922Z,69.40
2018-07-19T03:01:28.757Z,69.00
2018-07-19T03:03:56.528Z,69.70
2018-07-19T03:06:24.555Z,70.00
2018-07-19T03:08:52.344Z,70.80
2018-07-19T03:13:48.011Z,71.90
2018-07-19T03:16:15.817Z,71.70
2018-07-19T03:18:43.619Z,73.20
2018-07-19T03:21:11.505Z,72.50
2018-07-19T03:23:39.316Z,72.50
2018-07-19T03:26:07.088Z,71.90
2018-07-19T03:28:34.875Z,71.70
2018-07-19T03:31:02.703Z,73.10
2018-07-19T03:33:30.431Z,71.70
2018-07-19T03:35:58.246Z,72.60
2018-07-19T03:38:26.066Z,72.60
2018-07-19T03:40:53.820Z,74.00
2018-07-19T03:43:21.664Z,75.30
2018-07-19T03:45:49.415Z,75.30
2018-07-19T03:48:17.188Z,75.60
2018-07-19T03:53:12.652Z,77.60
2018-07-19T03:55:40.439Z,77.70
2018-07-19T03:58:08.258Z,78.10
2018-07-19T04:00:36.023Z,79.70
2018-07-19T04:03:03.790Z,78.70
2018-07-19T04:05:31.579Z,79.50
2018-07-19T04:07:59.310Z,81.00
2018-07-19T04:10:27.130Z,84.00
2018-07-19T04:12:54.935Z,86.40
2018-07-19T04:20:24.748Z,85.10
2018-07-19T04:22:52.991Z,85.20
2018-07-19T04:25:21.044Z,85.20
2018-07-19T04:27:48.819Z,81.10
2018-07-19T04:30:16.791Z,79.40
2018-07-19T04:32:44.740Z,77.80
2018-07-19T04:35:12.598Z,77.60
2018-07-19T04:37:40.524Z,77.70
2018-07-19T04:40:08.363Z,77.50
2018-07-19T04:42:36.139Z,76.30
2018-07-19T04:45:04.634Z,75.90
2018-07-19T04:47:32.365Z,75.30
2018-07-19T04:50:00.144Z,74.60
2018-07-19T04:52:27.929Z,76.10
2018-07-19T04:54:55.850Z,75.70
2018-07-19T04:57:23.716Z,75.50
2018-07-19T04:59:51.501Z,76.00
2018-07-19T05:02:19.709Z,75.30
2018-07-19T05:04:47.531Z,76.00
2018-07-19T05:07:15.312Z,75.20
2018-07-19T05:09:43.494Z,72.20
2018-07-19T05:12:11.272Z,70.80
2018-07-19T05:14:39.056Z,71.80
2018-07-19T05:17:06.824Z,70.30
2018-07-19T05:19:34.543Z,69.20
2018-07-19T05:22:02.399Z,68.00
2018-07-19T05:24:30.174Z,67.80
2018-07-19T05:26:57.954Z,67.40
2018-07-19T05:29:25.763Z,67.30
2018-07-19T05:31:53.573Z,67.60
2018-07-19T05:34:21.371Z,67.60
2018-07-19T05:36:49.340Z,69.00
2018-07-19T05:39:17.098Z,70.00
2018-07-19T05:41:44.839Z,69.40
2018-07-19T05:44:12.567Z,68.70
2018-07-19T05:46:40.255Z,70.20
2018-07-19T05:51:35.555Z,69.30
2018-07-19T05:54:03.507Z,68.60
2018-07-19T05:56:31.303Z,68.90
2018-07-19T05:58:59.057Z,68.70
2018-07-19T06:03:54.497Z,69.10
2018-07-19T06:08:50.035Z,69.40
2018-07-19T06:11:17.903Z,68.70
2018-07-19T06:16:13.459Z,67.20
2018-07-19T06:18:41.244Z,65.50
2018-07-19T06:21:09.080Z,65.30
2018-07-19T06:23:36.857Z,64.00
2018-07-19T06:26:04.823Z,63.60
2018-07-19T06:28:32.611Z,62.40
2018-07-19T06:31:00.430Z,61.00
2018-07-19T06:33:28.401Z,62.30
2018-07-19T06:35:56.356Z,62.40
2018-07-19T06:40:51.820Z,62.60
2018-07-19T06:43:19.555Z,61.00
2018-07-19T06:45:47.302Z,60.30
2018-07-19T06:48:15.035Z,60.00
2018-07-19T06:50:42.788Z,60.10
2018-07-19T06:53:10.579Z,58.90
2018-07-19T06:55:38.314Z,58.70
2018-07-19T06:58:06.103Z,59.20
2018-07-19T07:00:33.868Z,57.40
2018-07-19T07:05:29.326Z,57.60
2018-07-19T07:10:24.757Z,54.20
2018-07-19T07:15:20.193Z,53.90
2018-07-19T07:20:15.617Z,52.90
2018-07-19T07:22:43.346Z,50.60
2018-07-19T07:25:11.164Z,50.20
2018-07-19T07:27:38.940Z,50.90
2018-07-19T07:30:06.708Z,51.40
2018-07-19T07:32:34.502Z,49.20
2018-07-19T07:35:02.272Z,48.40
2018-07-19T07:37:30.083Z,47.50
2018-07-19T07:39:57.883Z,47.30
2018-07-19T07:42:25.667Z,46.90
2018-07-19T07:44:53.436Z,46.40
2018-07-19T07:47:21.196Z,46.50
2018-07-19T07:49:48.947Z,44.20
2018-07-19T07:52:16.739Z,43.70
2018-07-19T07:54:44.507Z,42.50
2018-07-19T07:57:12.270Z,43.70
2018-07-19T07:59:40.006Z,42.70
2018-07-19T08:02:08.019Z,40.20
2018-07-19T08:07:03.423Z,42.00
2018-07-19T08:09:31.175Z,40.90
2018-07-19T08:11:58.977Z,41.50
2018-07-19T08:19:22.003Z,43.00
2018-07-19T08:21:49.756Z,42.40
2018-07-19T08:26:45.095Z,39.90
2018-07-19T08:29:12.821Z,39.00
2018-07-19T08:34:08.241Z,37.80
2018-07-19T08:36:35.995Z,36.80
2018-07-19T08:39:06.773Z,36.00
2018-07-19T08:41:34.510Z,36.70
2018-07-19T08:46:29.854Z,34.80
2018-07-19T08:48:57.568Z,33.80
2018-07-19T08:51:25.363Z,34.00
2018-07-19T08:56:20.685Z,31.70
2018-07-19T08:58:48.720Z,32.30
2018-07-19T09:01:16.435Z,32.50
2018-07-19T09:03:44.147Z,34.10
2018-07-19T09:06:11.976Z,31.60
2018-07-19T09:08:39.687Z,29.50
2018-07-19T09:11:07.386Z,26.80
2018-07-19T09:16:02.775Z,25.90
2018-07-19T09:18:30.566Z,25.40
2018-07-19T09:23:25.884Z,23.70
2018-07-19T09:25:53.639Z,23.20
2018-07-19T09:28:21.374Z,21.00
2018-07-19T09:30:49.223Z,22.10
2018-07-19T09:33:16.918Z,23.00
2018-07-19T09:35:44.636Z,23.40
2018-07-19T09:38:12.343Z,22.40
2018-07-19T09:40:40.077Z,22.50
2018-07-19T09:43:07.815Z,24.00
2018-07-19T09:50:30.830Z,22.50
2018-07-19T09:52:58.564Z,22.80
2018-07-19T09:55:26.316Z,23.20
2018-07-19T10:00:28.335Z,19.40
2018-07-19T10:02:56.062Z,17.00
2018-07-19T10:05:23.827Z,16.20
2018-07-19T10:10:19.268Z,15.80
2018-07-19T10:12:47.067Z,15.80
2018-07-19T10:15:15.076Z,18.40
2018-07-19T10:17:42.834Z,18.50
2018-07-19T10:22:38.341Z,18.50
2018-07-19T10:25:06.169Z,18.20
2018-07-19T10:27:33.964Z,19.80
2018-07-19T10:30:01.747Z,19.20
2018-07-19T10:32:29.564Z,16.90
2018-07-19T10:34:57.239Z,16.20
2018-07-19T10:37:25.166Z,16.60
2018-07-19T10:39:52.907Z,16.70
2018-07-19T10:42:21.288Z,17.40
2018-07-19T10:44:49.110Z,18.00
2018-07-19T10:47:17.003Z,19.20
2018-07-19T10:49:44.837Z,18.80
2018-07-19T10:54:40.734Z,17.40
2018-07-19T10:57:08.907Z,16.00
2018-07-19T10:59:36.635Z,16.00
2018-07-19T11:02:04.599Z,14.80
2018-07-19T11:04:32.449Z,14.20
2018-07-19T11:07:00.197Z,13.20
2018-07-19T11:09:28.006Z,12.70
2018-07-19T11:19:18.535Z,15.20
2018-07-19T11:21:46.270Z,16.80
2018-07-19T11:24:14.083Z,16.60
2018-07-19T11:26:41.857Z,15.60
2018-07-19T11:29:09.643Z,13.80
2018-07-19T11:31:37.391Z,12.60
2018-07-19T11:34:05.439Z,12.30
2018-07-19T11:36:33.197Z,11.20
2018-07-19T11:39:00.944Z,10.70
2018-07-19T11:43:56.526Z,10.50
2018-07-19T11:46:24.263Z,11.40
2018-07-19T11:48:51.955Z,11.70
2018-07-19T11:51:19.691Z,12.40
2018-07-19T11:53:47.378Z,11.00
2018-07-19T11:56:15.104Z,12.40
2018-07-19T12:01:10.572Z,13.50
2018-07-19T12:03:38.304Z,12.20
2018-07-19T12:06:06.171Z,10.10
2018-07-19T12:08:33.845Z,10.90
2018-07-19T12:11:01.599Z,11.40
2018-07-19T12:13:29.327Z,13.50
2018-07-19T12:15:57.095Z,13.60
2018-07-19T12:18:24.785Z,13.90
2018-07-19T12:20:52.519Z,14.30
2018-07-19T12:23:20.423Z,14.50
2018-07-19T12:25:48.182Z,15.50
2018-07-19T12:28:15.864Z,16.70
2018-07-19T12:30:43.612Z,15.80
2018-07-19T12:33:11.307Z,16.00
2018-07-19T12:35:39.067Z,17.40
2018-07-19T12:38:06.832Z,17.50
2018-07-19T12:40:34.639Z,16.60
2018-07-19T12:43:02.465Z,15.40
2018-07-19T12:45:30.191Z,16.00
2018-07-19T12:47:57.931Z,15.40
2018-07-19T12:50:25.667Z,15.60
2018-07-19T12:52:53.395Z,15.20
2018-07-19T12:55:21.148Z,15.10
2018-07-19T13:00:16.676Z,14.10
2018-07-19T13:02:44.443Z,14.30
2018-07-19T13:07:39.763Z,13.20
2018-07-19T13:10:07.607Z,12.80
2018-07-19T13:12:35.631Z,11.90
2018-07-19T13:15:04.492Z,12.20
2018-07-19T13:17:32.278Z,14.20
2018-07-19T13:20:00.007Z,14.80
2018-07-19T13:25:26.069Z,13.40
2018-07-19T13:27:53.874Z,14.50
2018-07-19T13:30:21.688Z,15.50
2018-07-19T13:35:17.098Z,15.80
2018-07-19T13:37:44.919Z,15.70
2018-07-19T13:40:12.692Z,16.00
2018-07-19T13:42:40.452Z,14.40
2018-07-19T13:45:08.194Z,14.80
2018-07-19T13:47:36.002Z,15.60
2018-07-19T13:50:04.194Z,15.30
2018-07-19T13:52:43.244Z,15.60
2018-07-19T13:57:38.627Z,17.80
2018-07-19T14:00:06.422Z,17.90
2018-07-19T14:02:34.155Z,17.70
2018-07-19T14:05:01.876Z,16.60
2018-07-19T14:07:29.597Z,15.80
2018-07-19T14:09:57.443Z,15.70
2018-07-19T14:12:25.178Z,17.30
2018-07-19T14:14:52.942Z,18.30
2018-07-19T14:17:20.727Z,19.30
2018-07-19T14:19:48.461Z,19.10
2018-07-19T14:22:16.195Z,18.60
2018-07-19T14:24:44.111Z,17.70
2018-07-19T14:27:11.814Z,17.60
2018-07-19T14:29:39.633Z,17.90
2018-07-19T14:32:07.409Z,17.50
2018-07-19T14:34:35.280Z,17.00
2018-07-19T14:37:03.071Z,16.30
2018-07-19T14:39:30.775Z,15.60
2018-07-19T14:44:26.211Z,15.10
2018-07-19T14:46:53.944Z,15.10
2018-07-19T14:49:21.658Z,15.00
2018-07-19T14:51:49.426Z,15.30
2018-07-19T14:54:17.191Z,15.70
2018-07-19T14:56:45.035Z,15.50
2018-07-19T14:59:12.822Z,15.30
2018-07-19T15:01:40.614Z,16.00
2018-07-19T15:04:08.407Z,15.90
2018-07-19T15:06:36.220Z,16.00
2018-07-19T15:09:07.625Z,16.70
2018-07-19T15:11:35.387Z,16.90
2018-07-19T15:14:03.179Z,16.60
2018-07-19T15:16:30.939Z,17.60
2018-07-19T15:18:58.657Z,17.10
2018-07-19T15:21:26.383Z,16.60
2018-07-19T15:23:54.124Z,16.70
2018-07-19T15:26:21.886Z,17.90
2018-07-19T15:28:49.624Z,17.70
2018-07-19T15:31:17.371Z,17.80
2018-07-19T15:33:45.211Z,17.50
2018-07-19T15:36:12.963Z,17.90
2018-07-19T15:38:40.669Z,17.90
2018-07-19T15:41:08.467Z,17.20
2018-07-19T15:43:36.229Z,17.50
2018-07-19T15:46:04.046Z,17.60
2018-07-19T15:48:31.798Z,17.40
2018-07-19T15:50:59.572Z,17.70
2018-07-19T15:53:27.352Z,17.90
2018-07-19T15:55:55.095Z,17.90
2018-07-19T15:58:22.939Z,17.90
2018-07-19T16:00:50.735Z,17.70
2018-07-19T16:03:18.484Z,17.80
2018-07-19T16:05:46.299Z,17.70
2018-07-19T16:08:14.096Z,17.50
2018-07-19T16:10:41.866Z,18.30
2018-07-19T16:13:09.633Z,18.80
2018-07-19T16:15:37.392Z,18.30
2018-07-19T16:20:32.816Z,18.20
2018-07-19T16:23:00.621Z,18.30
2018-07-19T16:25:28.424Z,18.50
2018-07-19T16:27:56.398Z,18.20
2018-07-19T16:30:24.126Z,18.10
2018-07-19T16:32:51.929Z,18.60
2018-07-19T16:35:19.689Z,18.80
2018-07-19T16:37:47.423Z,20.00
2018-07-19T16:40:15.212Z,20.60
2018-07-19T16:42:43.017Z,19.90
2018-07-19T16:45:10.787Z,20.10
2018-07-19T16:47:38.554Z,20.20
2018-07-19T16:50:06.308Z,20.60
2018-07-19T16:52:34.123Z,20.80
2018-07-19T16:55:01.871Z,20.30
2018-07-19T16:57:29.602Z,20.30
2018-07-19T16:59:57.399Z,20.70
2018-07-19T17:02:25.167Z,20.70
2018-07-19T17:04:52.947Z,21.00
2018-07-19T17:07:20.684Z,21.10
2018-07-19T17:09:48.432Z,21.50
2018-07-19T17:12:16.258Z,21.60
2018-07-19T17:14:44.071Z,21.80
2018-07-19T17:17:11.880Z,21.40
2018-07-19T17:19:39.866Z,21.80
2018-07-19T17:22:07.633Z,22.10
2018-07-19T17:24:35.397Z,22.30
2018-07-19T17:27:03.154Z,22.60
2018-07-19T17:29:30.923Z,22.50
2018-07-19T17:31:58.654Z,22.10
2018-07-19T17:34:26.469Z,22.50
2018-07-19T17:36:54.325Z,22.70
2018-07-19T17:39:22.116Z,21.60
2018-07-19T17:41:50.020Z,21.10
2018-07-19T17:44:17.964Z,22.00
2018-07-19T17:46:45.940Z,22.10
2018-07-19T17:49:13.978Z,22.10
2018-07-19T17:51:41.747Z,22.30
2018-07-19T17:54:09.526Z,22.80
2018-07-19T17:56:37.366Z,22.00
2018-07-19T17:59:05.196Z,21.80
2018-07-19T18:01:33.172Z,21.80
2018-07-19T18:04:00.899Z,22.40
2018-07-19T18:06:28.646Z,23.20
2018-07-19T18:08:56.480Z,23.20
2018-07-19T18:11:26.115Z,22.80
2018-07-19T18:13:54.167Z,22.70
2018-07-19T18:16:22.256Z,22.30
2018-07-19T18:21:17.913Z,24.30
2018-07-19T18:23:45.795Z,24.60
2018-07-19T18:26:14.059Z,23.80
2018-07-19T18:28:43.671Z,24.40
2018-07-19T18:31:12.118Z,24.00
2018-07-19T18:33:40.278Z,24.50
2018-07-19T18:38:35.752Z,24.90
2018-07-19T18:41:03.548Z,25.10
2018-07-19T18:43:31.374Z,25.10
2018-07-19T18:45:59.310Z,25.30
2018-07-19T18:48:27.112Z,26.00
2018-07-19T18:50:54.904Z,25.90
2018-07-19T18:53:22.698Z,26.00
2018-07-19T18:55:50.547Z,26.30
2018-07-19T18:58:18.301Z,26.30
2018-07-19T19:00:46.056Z,25.90
2018-07-19T19:03:13.827Z,26.70
2018-07-19T19:05:41.546Z,27.00
2018-07-19T19:08:09.287Z,27.40
2018-07-19T19:10:37.057Z,28.20
2018-07-19T19:13:04.909Z,28.30
2018-07-19T19:15:32.679Z,28.40
2018-07-19T19:18:00.411Z,28.70
2018-07-19T19:20:28.159Z,29.10
2018-07-19T19:22:55.873Z,29.20
2018-07-19T19:25:23.638Z,29.10
2018-07-19T19:27:51.379Z,29.40
2018-07-19T19:30:19.168Z,29.80
2018-07-19T19:32:46.881Z,29.90
2018-07-19T19:35:14.640Z,30.00
2018-07-19T19:37:42.409Z,30.40
2018-07-19T19:40:10.182Z,30.40
2018-07-19T19:42:37.915Z,31.80
2018-07-19T19:45:05.724Z,31.20
2018-07-19T19:47:33.463Z,32.00
2018-07-19T19:50:01.234Z,32.10
2018-07-19T19:52:29.066Z,32.30
2018-07-19T19:57:24.455Z,32.70
2018-07-19T19:59:52.311Z,32.20
2018-07-19T20:02:20.139Z,32.80
2018-07-19T20:04:48.099Z,32.80
2018-07-19T20:07:15.831Z,33.70
2018-07-19T20:09:43.594Z,33.80
2018-07-19T20:12:11.558Z,34.00
2018-07-19T20:14:39.382Z,34.20
2018-07-19T20:17:07.252Z,35.10
2018-07-19T20:22:02.619Z,35.20
2018-07-19T20:24:30.344Z,35.00
2018-07-19T20:26:58.188Z,34.90
2018-07-19T20:29:25.936Z,35.60
2018-07-19T20:31:53.700Z,36.60
2018-07-19T20:34:21.448Z,37.10
2018-07-19T20:36:49.231Z,36.50
2018-07-19T20:41:44.575Z,37.60
2018-07-19T20:44:12.342Z,37.90
2018-07-19T20:46:40.136Z,37.70
2018-07-19T20:49:08.037Z,37.90
2018-07-19T20:51:35.761Z,38.50
2018-07-19T20:54:03.602Z,38.50
2018-07-19T20:56:31.339Z,38.50
2018-07-19T20:58:59.129Z,38.50
2018-07-19T21:03:54.487Z,39.20
2018-07-19T21:06:22.221Z,39.00
2018-07-19T21:11:17.672Z,40.40
2018-07-19T21:13:45.541Z,40.40
2018-07-19T21:16:13.314Z,40.50
2018-07-19T21:18:41.247Z,40.80
2018-07-19T21:21:09.056Z,40.70
2018-07-19T21:23:36.902Z,40.90
2018-07-19T21:26:04.731Z,41.00
2018-07-19T21:28:32.537Z,41.40
2018-07-19T21:31:00.267Z,41.80
2018-07-19T21:35:55.663Z,42.30
2018-07-19T21:38:24.199Z,41.80
2018-07-19T21:40:51.959Z,42.20
2018-07-19T21:43:19.706Z,42.90
2018-07-19T21:48:15.095Z,43.30
2018-07-19T21:50:42.863Z,43.90
2018-07-19T21:53:10.589Z,43.00
2018-07-19T21:55:38.330Z,44.00
2018-07-19T21:58:06.028Z,43.50
2018-07-19T22:00:38.288Z,44.20
2018-07-19T22:03:06.095Z,44.20
2018-07-19T22:05:33.819Z,44.50
2018-07-19T22:08:01.559Z,44.20
2018-07-19T22:12:57.111Z,44.50
2018-07-19T22:15:24.887Z,44.40
2018-07-19T22:17:52.688Z,45.00
2018-07-19T22:20:20.440Z,44.30
2018-07-19T22:22:48.203Z,44.90
2018-07-19T22:25:15.903Z,44.90
2018-07-19T22:30:11.295Z,45.40
2018-07-19T22:32:39.037Z,45.20
2018-07-19T22:35:06.759Z,45.40
2018-07-19T22:40:02.079Z,46.40
2018-07-19T22:44:57.441Z,46.60
2018-07-19T22:47:25.258Z,46.80
2018-07-19T22:52:20.587Z,47.20
2018-07-19T22:57:15.901Z,48.00
2018-07-19T22:59:43.644Z,46.80
2018-07-19T23:02:11.442Z,47.00
2018-07-19T23:04:39.231Z,46.60
2018-07-19T23:07:06.951Z,46.90
2018-07-19T23:09:34.739Z,47.80
2018-07-19T23:14:30.184Z,48.70
2018-07-19T23:16:57.912Z,48.30
2018-07-19T23:19:25.686Z,48.30
2018-07-19T23:21:53.435Z,49.10
2018-07-19T23:24:21.174Z,49.80
2018-07-19T23:26:49.036Z,49.00
2018-07-19T23:29:16.874Z,49.20
2018-07-19T23:31:44.703Z,49.50
2018-07-19T23:34:12.528Z,50.00
2018-07-19T23:36:46.778Z,50.40
2018-07-19T23:39:23.399Z,50.20
2018-07-19T23:41:55.331Z,49.80
2018-07-19T23:46:59.255Z,50.40
2018-07-19T23:49:27.415Z,50.50
2018-07-19T23:51:55.163Z,50.70
2018-07-19T23:54:22.910Z,51.30
2018-07-19T23:56:50.655Z,51.20
2018-07-19T23:59:18.403Z,51.40
